DLH7E EDDH-EDDM
Flight info
| Callsign | DLH7E |
|---|---|
| Flight time | N/A |
| Altitude | 35000 |
| Route | AMLUH3B/23 AMLUH M852 DENIX DCT ZUCKA DCT SODRO/N0407F310 T703 LULAR/N0398F300 T105 LANDU LANDU2A |
| Aircraft | A320/M-SDE2E3FGIJ1LORWXYZ/HB1 |
Departure
| Time | 2026-05-01 15:03 |
|---|---|
| Airport | Hamburg Helmut Schmidt Airport (EDDH) |
Arrival
| Time | N/A |
|---|---|
| Airport | Munich Airport (EDDM) |
| Time | Latitude | Longitude | Altitude | Speed | Heading |
|---|---|---|---|---|---|
| 2026-05-01 14:34 | 53.63292 | 10.00358 | 49 ft | 0 kts | 87° |
| 2026-05-01 14:55 | 53.63292 | 10.00352 | 48 ft | 2 kts | 87° |
| 2026-05-01 14:55 | 53.63291 | 10.00307 | 48 ft | 4 kts | 87° |
| 2026-05-01 14:55 | 53.63289 | 10.00262 | 48 ft | 4 kts | 87° |
| 2026-05-01 14:56 | 53.63288 | 10.00226 | 46 ft | 4 kts | 76° |
| 2026-05-01 14:56 | 53.63277 | 10.00187 | 47 ft | 4 kts | 39° |
| 2026-05-01 14:56 | 53.63258 | 10.00174 | 44 ft | 1 kts | 356° |
| 2026-05-01 14:56 | 53.63257 | 10.00174 | 44 ft | 0 kts | 355° |
| 2026-05-01 15:00 | 53.63272 | 10.00172 | 48 ft | 5 kts | 356° |
| 2026-05-01 15:01 | 53.63326 | 10.00166 | 48 ft | 10 kts | 356° |
| 2026-05-01 15:01 | 53.63413 | 10.00155 | 48 ft | 15 kts | 355° |
| 2026-05-01 15:01 | 53.63521 | 10.00128 | 49 ft | 17 kts | 333° |
| 2026-05-01 15:01 | 53.63602 | 9.99985 | 49 ft | 15 kts | 269° |
| 2026-05-01 15:02 | 53.63569 | 9.99900 | 51 ft | 0 kts | 231° |
| 2026-05-01 15:03 | 53.63475 | 9.99711 | 49 ft | 60 kts | 229° |
| 2026-05-01 15:03 | 53.63059 | 9.98869 | 46 ft | 124 kts | 230° |
| 2026-05-01 15:03 | 53.62388 | 9.97532 | 59 ft | 171 kts | 231° |
| 2026-05-01 15:03 | 53.61648 | 9.96007 | 832 ft | 166 kts | 228° |
| 2026-05-01 15:04 | 53.60922 | 9.94495 | 1589 ft | 168 kts | 227° |
| 2026-05-01 15:04 | 53.60128 | 9.92879 | 1945 ft | 191 kts | 227° |
| 2026-05-01 15:04 | 53.59225 | 9.91048 | 2329 ft | 213 kts | 228° |
| 2026-05-01 15:04 | 53.58278 | 9.89117 | 3027 ft | 219 kts | 227° |
| 2026-05-01 15:05 | 53.57285 | 9.87164 | 3908 ft | 219 kts | 218° |
| 2026-05-01 15:05 | 53.55935 | 9.86152 | 4679 ft | 216 kts | 180° |
| 2026-05-01 15:05 | 53.54504 | 9.86877 | 5186 ft | 225 kts | 142° |
| 2026-05-01 15:05 | 53.53344 | 9.88573 | 6229 ft | 218 kts | 141° |
| 2026-05-01 15:06 | 53.52251 | 9.90367 | 7061 ft | 223 kts | 128° |
| 2026-05-01 15:06 | 53.51556 | 9.92746 | 7754 ft | 238 kts | 108° |
| 2026-05-01 15:06 | 53.51392 | 9.95673 | 8136 ft | 266 kts | 94° |
| 2026-05-01 15:06 | 53.51363 | 9.98871 | 8780 ft | 279 kts | 94° |
| 2026-05-01 15:07 | 53.51332 | 10.02166 | 9651 ft | 283 kts | 96° |
| 2026-05-01 15:07 | 53.51002 | 10.05365 | 10495 ft | 282 kts | 112° |
| 2026-05-01 15:07 | 53.50180 | 10.08458 | 10873 ft | 302 kts | 120° |
| 2026-05-01 15:07 | 53.49200 | 10.11685 | 11361 ft | 316 kts | 120° |
| 2026-05-01 15:08 | 53.48179 | 10.15003 | 12101 ft | 322 kts | 120° |
| 2026-05-01 15:08 | 53.47141 | 10.18363 | 12884 ft | 326 kts | 120° |
| 2026-05-01 15:08 | 53.46090 | 10.21770 | 13665 ft | 330 kts | 120° |
| 2026-05-01 15:08 | 53.45030 | 10.25220 | 14391 ft | 335 kts | 120° |
| 2026-05-01 15:09 | 53.43789 | 10.28517 | 15031 ft | 337 kts | 131° |
| 2026-05-01 15:09 | 53.42120 | 10.31274 | 15662 ft | 339 kts | 143° |
| 2026-05-01 15:09 | 53.40091 | 10.33320 | 16317 ft | 343 kts | 156° |
| 2026-05-01 15:09 | 53.37841 | 10.34565 | 16900 ft | 348 kts | 165° |
| 2026-05-01 15:10 | 53.35495 | 10.35609 | 17583 ft | 351 kts | 165° |
| 2026-05-01 15:10 | 53.30727 | 10.37722 | 18879 ft | 358 kts | 165° |
| 2026-05-01 15:10 | 53.28304 | 10.38797 | 19413 ft | 363 kts | 164° |
| 2026-05-01 15:11 | 53.25860 | 10.39889 | 19974 ft | 366 kts | 164° |
| 2026-05-01 15:11 | 53.20895 | 10.42118 | 21140 ft | 371 kts | 164° |
| 2026-05-01 15:11 | 53.18401 | 10.43229 | 21706 ft | 374 kts | 164° |
| 2026-05-01 15:12 | 53.15870 | 10.44352 | 22203 ft | 378 kts | 164° |
| 2026-05-01 15:12 | 53.10767 | 10.46502 | 23308 ft | 383 kts | 167° |
| 2026-05-01 15:12 | 53.08104 | 10.47394 | 23838 ft | 387 kts | 168° |
| 2026-05-01 15:13 | 53.00114 | 10.49706 | 25168 ft | 394 kts | 169° |
| 2026-05-01 15:14 | 52.94698 | 10.51329 | 26005 ft | 399 kts | 168° |
| 2026-05-01 15:14 | 52.91954 | 10.52179 | 26387 ft | 402 kts | 168° |
| 2026-05-01 15:14 | 52.86426 | 10.53899 | 27180 ft | 408 kts | 168° |
| 2026-05-01 15:15 | 52.80808 | 10.55642 | 28002 ft | 412 kts | 168° |
| 2026-05-01 15:15 | 52.75174 | 10.57367 | 28760 ft | 417 kts | 168° |
| 2026-05-01 15:16 | 52.69438 | 10.59120 | 29549 ft | 422 kts | 168° |
| 2026-05-01 15:16 | 52.63612 | 10.60903 | 30156 ft | 429 kts | 168° |
| 2026-05-01 15:17 | 52.57701 | 10.62708 | 30771 ft | 435 kts | 168° |
| 2026-05-01 15:18 | 52.48756 | 10.65433 | 31641 ft | 440 kts | 168° |
| 2026-05-01 15:18 | 52.45742 | 10.66348 | 31946 ft | 441 kts | 168° |
| 2026-05-01 15:19 | 52.36701 | 10.69080 | 33111 ft | 439 kts | 169° |
| 2026-05-01 15:19 | 52.30875 | 10.71909 | 33870 ft | 437 kts | 159° |
| 2026-05-01 15:19 | 52.28035 | 10.73681 | 34221 ft | 437 kts | 159° |
| 2026-05-01 15:20 | 52.22359 | 10.77240 | 34864 ft | 437 kts | 159° |
| 2026-05-01 15:20 | 52.19566 | 10.78994 | 35140 ft | 437 kts | 159° |
| 2026-05-01 15:21 | 52.18606 | 10.79596 | 35233 ft | 437 kts | 159° |